Meteo Giornale » Osservazioni meteo Italia » Palermo-Punta Raisi

ore: 12:50 - Osservazioni Meteo Palermo-Punta Raisi
Lat. 38° 11' N Lon. 13° 6' E Alt. 21 metri s.l.m.

poco_nuvoloso Europe/Rome

29 °C

Poco Nuvoloso

Temp. 24 Ore

23 °C

29 °C

Nord/NOvest

9.3 Km/h

Dew point 23 °C

Umidità 70 %

Visibilità  10 Km

Il sole sorge alle ore 06:17

Il sole tramonta alle ore 20:08

Data e Ora Cielo e Fenomeni T °C DP °C Um. % Pres. hPa Vis. km Vento km/h
Oggi h: 12:50 poco_nuvoloso Poco Nuvoloso 29 23 70 1014 10 N/NO 9.3
Oggi h: 12:20 poco_nuvoloso Poco Nuvoloso 29 24 74 1014 10 NO 7.4
Oggi h: 11:50 sereno Sereno 28 23 74 1014 10 O/NO 11.1
Oggi h: 11:20 sereno Sereno 28 24 78 1014 10 O/NO 9.3
Oggi h: 10:50 sereno Sereno 28 23 74 1014 10 O/NO 9.3
Oggi h: 10:20 sereno Sereno 27 23 78 1014 10 O 9.3
Oggi h: 09:50 sereno Sereno 27 22 74 1014 10 N 5.5
Oggi h: 09:20 sereno Sereno 27 22 74 1014 10 N 5.5
Oggi h: 08:50 sereno Sereno 27 20 65 1014 10 N 5.5
Oggi h: 08:20 sereno Sereno 27 20 65 1014 10 SO 9.3
Oggi h: 07:50 sereno Sereno 26 19 65 1014 10 SO 14.8
Oggi h: 07:20 sereno Sereno 25 16 57 1013 10 N 3.7
Oggi h: 06:50 sereno Sereno 23 16 64 1013 10 N 5.5
Oggi h: 05:50 sereno Sereno 24 18 69 1013 10 N 5.5
Oggi h: 05:20 sereno Sereno 25 18 65 1013 10 N 1.8
Oggi h: 04:50 sereno Sereno 24 18 69 1013 10 N 3.7
Oggi h: 04:20 sereno Sereno 24 18 69 1013 10 N 5.5
Oggi h: 03:50 sereno Sereno 25 19 69 1013 10 S/SO 7.4
Oggi h: 03:20 sereno Sereno 25 19 69 1013 10 N 3.7
Oggi h: 02:50 sereno Sereno 25 20 73 1013 10 E 9.3
Oggi h: 02:20 sereno Sereno 26 21 73 1013 10 NE 13
Oggi h: 01:50 sereno Sereno 26 21 73 1013 10 E/NE 13
Oggi h: 01:20 sereno Sereno 26 21 73 1013 10 E/NE 13
Oggi h: 00:50 sereno Sereno 26 22 78 1013 10 NE 16.7
Oggi h: 00:20 sereno Sereno 27 22 74 1013 10 NE 14.8
Ieri h: 23:50 sereno Sereno 27 22 74 1013 10 NE 16.7
Ieri h: 23:20 sereno Sereno 27 22 74 1013 10 NE 14.8
Ieri h: 22:50 sereno Sereno 27 22 74 1013 10 NE 13
Ieri h: 22:20 sereno Sereno 27 22 74 1013 10 NE 13
Ieri h: 21:50 sereno Sereno 27 22 74 1013 10 NE 14.8
Ieri h: 21:20 sereno Sereno 27 22 74 1012 10 N/NE 18.5
Ieri h: 20:50 sereno Sereno 27 23 78 1012 10 N/NE 18.5
Ieri h: 20:20 sereno Sereno 27 22 74 1012 10 NE 20.3
Ieri h: 19:50 sereno Sereno 28 21 65 1012 10 NE 20.3
Ieri h: 19:20 sereno Sereno 28 21 65 1012 10 NE 22.2
Ieri h: 18:50 sereno Sereno 28 21 65 1012 10 NE 25.9
Ieri h: 18:20 sereno Sereno 29 21 62 1012 10 NE 24
Ieri h: 17:50 sereno Sereno 28 20 61 1012 10 NE 25.9
Ieri h: 17:20 sereno Sereno 29 20 58 1012 10 NE 24
Ieri h: 16:50 sereno Sereno 29 21 62 1012 10 NE 22.2
Ieri h: 16:20 sereno Sereno 28 21 65 1012 10 N/NE 22.2
Ieri h: 15:50 poco_nuvoloso Poco Nuvoloso 29 21 62 1012 10 NE 22.2
Ieri h: 15:20 poco_nuvoloso Poco Nuvoloso 29 22 66 1013 10 NE 20.3
Ieri h: 14:50 poco_nuvoloso Poco Nuvoloso 29 23 70 1013 10 N/NE 16.7
Ieri h: 14:20 poco_nuvoloso Poco Nuvoloso 29 23 70 1013 10 NE 16.7
Ieri h: 13:50 poco_nuvoloso Poco Nuvoloso 29 22 66 1013 10 N/NE 22.2